URWA 082330Z 09004MPS CAVOK M11/M12 Q1037 R09/010070 TEMPO 2000 BR RMK QFE780/1040
QNH:(hPa/inHg/mmHg)1037 / 30.62 / 778
QFE:(hPa/inHg/mmHg)1039 / 30.69 / 780
Temperature-11
Dew Point-12
Visibility2000
WeatherCAVOK;Mist
Cloud Cover
Transition Altitude3000 ft.
Transition LevelFL40
SQUAWK